sensor_id;sensor_type;location;lat;lon;timestamp;temperature;humidity
57390;DHT22;43217;52.694;6.214;2023-12-20T00:01:47;6.40;99.90
57390;DHT22;43217;52.694;6.214;2023-12-20T00:04:13;6.40;99.90
57390;DHT22;43217;52.694;6.214;2023-12-20T00:06:38;6.40;99.90
57390;DHT22;43217;52.694;6.214;2023-12-20T00:09:04;6.30;99.90
57390;DHT22;43217;52.694;6.214;2023-12-20T00:11:29;6.30;99.90
57390;DHT22;43217;52.694;6.214;2023-12-20T00:13:55;6.20;99.90
57390;DHT22;43217;52.694;6.214;2023-12-20T00:16:21;6.20;99.90
57390;DHT22;43217;52.694;6.214;2023-12-20T00:18:46;6.10;99.90
57390;DHT22;43217;52.694;6.214;2023-12-20T00:21:12;6.10;99.90
57390;DHT22;43217;52.694;6.214;2023-12-20T00:23:37;6.10;99.90
57390;DHT22;43217;52.694;6.214;2023-12-20T00:26:03;6.10;99.90
57390;DHT22;43217;52.694;6.214;2023-12-20T00:28:28;6.10;99.90
57390;DHT22;43217;52.694;6.214;2023-12-20T00:30:54;6.10;99.90
57390;DHT22;43217;52.694;6.214;2023-12-20T00:33:19;6.10;99.90
57390;DHT22;43217;52.694;6.214;2023-12-20T00:35:45;6.20;99.90
57390;DHT22;43217;52.694;6.214;2023-12-20T00:38:11;6.20;99.90
57390;DHT22;43217;52.694;6.214;2023-12-20T00:40:37;6.20;99.90
57390;DHT22;43217;52.694;6.214;2023-12-20T00:43:03;6.10;99.90
57390;DHT22;43217;52.694;6.214;2023-12-20T00:45:28;6.10;99.90
57390;DHT22;43217;52.694;6.214;2023-12-20T00:47:54;6.10;99.90
57390;DHT22;43217;52.694;6.214;2023-12-20T00:50:20;6.10;99.90
57390;DHT22;43217;52.694;6.214;2023-12-20T00:52:47;6.10;99.90
57390;DHT22;43217;52.694;6.214;2023-12-20T00:55:13;6.10;99.90
57390;DHT22;43217;52.694;6.214;2023-12-20T00:57:39;6.10;99.90
57390;DHT22;43217;52.694;6.214;2023-12-20T01:00:05;6.10;99.90
57390;DHT22;43217;52.694;6.214;2023-12-20T01:02:31;6.10;99.90
57390;DHT22;43217;52.694;6.214;2023-12-20T01:04:56;6.20;99.90
57390;DHT22;43217;52.694;6.214;2023-12-20T01:07:22;6.20;99.90
57390;DHT22;43217;52.694;6.214;2023-12-20T01:09:48;6.20;99.90
57390;DHT22;43217;52.694;6.214;2023-12-20T01:12:13;6.20;99.90
57390;DHT22;43217;52.694;6.214;2023-12-20T01:14:39;6.30;99.90
57390;DHT22;43217;52.694;6.214;2023-12-20T01:17:05;6.20;99.90
57390;DHT22;43217;52.694;6.214;2023-12-20T01:19:31;6.30;99.90
57390;DHT22;43217;52.694;6.214;2023-12-20T01:21:56;6.30;99.90
57390;DHT22;43217;52.694;6.214;2023-12-20T01:24:22;6.30;99.90
57390;DHT22;43217;52.694;6.214;2023-12-20T01:26:47;6.30;99.90
57390;DHT22;43217;52.694;6.214;2023-12-20T01:29:13;6.30;99.90
57390;DHT22;43217;52.694;6.214;2023-12-20T01:31:39;6.20;99.90
57390;DHT22;43217;52.694;6.214;2023-12-20T01:34:06;6.20;99.90
57390;DHT22;43217;52.694;6.214;2023-12-20T01:36:31;6.20;99.90
57390;DHT22;43217;52.694;6.214;2023-12-20T01:38:57;6.20;99.90
57390;DHT22;43217;52.694;6.214;2023-12-20T01:41:23;6.20;99.90
57390;DHT22;43217;52.694;6.214;2023-12-20T01:43:48;6.20;99.90
57390;DHT22;43217;52.694;6.214;2023-12-20T01:46:15;6.20;99.90
57390;DHT22;43217;52.694;6.214;2023-12-20T01:48:41;6.20;99.90
57390;DHT22;43217;52.694;6.214;2023-12-20T01:51:07;6.30;99.90
57390;DHT22;43217;52.694;6.214;2023-12-20T01:53:33;6.20;99.90
57390;DHT22;43217;52.694;6.214;2023-12-20T01:55:59;6.20;99.90
57390;DHT22;43217;52.694;6.214;2023-12-20T01:58:26;6.30;99.90
57390;DHT22;43217;52.694;6.214;2023-12-20T02:00:51;6.30;99.90
57390;DHT22;43217;52.694;6.214;2023-12-20T02:03:18;6.30;99.90
57390;DHT22;43217;52.694;6.214;2023-12-20T02:05:44;6.30;99.90
57390;DHT22;43217;52.694;6.214;2023-12-20T02:08:11;6.30;99.90
57390;DHT22;43217;52.694;6.214;2023-12-20T02:10:37;6.20;99.90
57390;DHT22;43217;52.694;6.214;2023-12-20T02:13:03;6.20;99.90
57390;DHT22;43217;52.694;6.214;2023-12-20T02:15:29;6.20;99.90
57390;DHT22;43217;52.694;6.214;2023-12-20T02:17:55;6.20;99.90
57390;DHT22;43217;52.694;6.214;2023-12-20T02:20:21;6.20;99.90
57390;DHT22;43217;52.694;6.214;2023-12-20T02:22:47;6.20;99.90
57390;DHT22;43217;52.694;6.214;2023-12-20T02:25:12;6.30;99.90
57390;DHT22;43217;52.694;6.214;2023-12-20T02:27:38;6.20;99.90
57390;DHT22;43217;52.694;6.214;2023-12-20T02:30:05;6.30;99.90
57390;DHT22;43217;52.694;6.214;2023-12-20T02:32:31;6.30;99.90
57390;DHT22;43217;52.694;6.214;2023-12-20T02:34:57;6.30;99.90
57390;DHT22;43217;52.694;6.214;2023-12-20T02:37:23;6.30;99.90
57390;DHT22;43217;52.694;6.214;2023-12-20T02:39:49;6.40;99.90
57390;DHT22;43217;52.694;6.214;2023-12-20T02:42:14;6.40;99.90
57390;DHT22;43217;52.694;6.214;2023-12-20T02:44:40;6.40;99.90
57390;DHT22;43217;52.694;6.214;2023-12-20T02:47:05;6.40;99.90
57390;DHT22;43217;52.694;6.214;2023-12-20T02:49:31;6.40;99.90
57390;DHT22;43217;52.694;6.214;2023-12-20T02:51:57;6.40;99.90
57390;DHT22;43217;52.694;6.214;2023-12-20T02:54:22;6.40;99.90
57390;DHT22;43217;52.694;6.214;2023-12-20T02:56:48;6.40;99.90
57390;DHT22;43217;52.694;6.214;2023-12-20T02:59:13;6.40;99.90
57390;DHT22;43217;52.694;6.214;2023-12-20T03:01:43;6.50;99.90
57390;DHT22;43217;52.694;6.214;2023-12-20T03:04:09;6.50;99.90
57390;DHT22;43217;52.694;6.214;2023-12-20T03:06:35;6.50;99.90
57390;DHT22;43217;52.694;6.214;2023-12-20T03:09:00;6.50;99.90
57390;DHT22;43217;52.694;6.214;2023-12-20T03:11:27;6.50;99.90
57390;DHT22;43217;52.694;6.214;2023-12-20T03:13:53;6.60;99.90
57390;DHT22;43217;52.694;6.214;2023-12-20T03:16:18;6.60;99.90
57390;DHT22;43217;52.694;6.214;2023-12-20T03:18:44;6.60;99.90
57390;DHT22;43217;52.694;6.214;2023-12-20T03:21:09;6.60;99.90
57390;DHT22;43217;52.694;6.214;2023-12-20T03:23:35;6.60;99.90
57390;DHT22;43217;52.694;6.214;2023-12-20T03:26:01;6.60;99.90
57390;DHT22;43217;52.694;6.214;2023-12-20T03:28:27;6.60;99.90
57390;DHT22;43217;52.694;6.214;2023-12-20T03:30:53;6.60;99.90
57390;DHT22;43217;52.694;6.214;2023-12-20T03:33:18;6.60;99.90
57390;DHT22;43217;52.694;6.214;2023-12-20T03:35:44;6.60;99.90
57390;DHT22;43217;52.694;6.214;2023-12-20T03:38:09;6.60;99.90
57390;DHT22;43217;52.694;6.214;2023-12-20T03:40:35;6.60;99.90
57390;DHT22;43217;52.694;6.214;2023-12-20T03:43:01;6.60;99.90
57390;DHT22;43217;52.694;6.214;2023-12-20T03:45:27;6.60;99.90
57390;DHT22;43217;52.694;6.214;2023-12-20T03:47:52;6.60;99.90
57390;DHT22;43217;52.694;6.214;2023-12-20T03:50:26;6.60;99.90
57390;DHT22;43217;52.694;6.214;2023-12-20T03:52:52;6.60;99.90
57390;DHT22;43217;52.694;6.214;2023-12-20T03:55:17;6.70;99.90
57390;DHT22;43217;52.694;6.214;2023-12-20T03:57:43;6.70;99.90
57390;DHT22;43217;52.694;6.214;2023-12-20T04:00:09;6.70;99.90
57390;DHT22;43217;52.694;6.214;2023-12-20T04:02:39;6.60;99.90
57390;DHT22;43217;52.694;6.214;2023-12-20T04:05:05;6.60;99.90
57390;DHT22;43217;52.694;6.214;2023-12-20T04:07:31;6.60;99.90
57390;DHT22;43217;52.694;6.214;2023-12-20T04:09:57;6.50;99.90
57390;DHT22;43217;52.694;6.214;2023-12-20T04:12:23;6.50;99.90
57390;DHT22;43217;52.694;6.214;2023-12-20T04:14:48;6.50;99.90
57390;DHT22;43217;52.694;6.214;2023-12-20T04:17:15;6.50;99.90
57390;DHT22;43217;52.694;6.214;2023-12-20T04:19:41;6.50;99.90
57390;DHT22;43217;52.694;6.214;2023-12-20T04:22:07;6.50;99.90
57390;DHT22;43217;52.694;6.214;2023-12-20T04:24:33;6.50;99.90
57390;DHT22;43217;52.694;6.214;2023-12-20T04:26:58;6.50;99.90
57390;DHT22;43217;52.694;6.214;2023-12-20T04:29:24;6.50;99.90
57390;DHT22;43217;52.694;6.214;2023-12-20T04:31:49;6.60;99.90
57390;DHT22;43217;52.694;6.214;2023-12-20T04:34:17;6.50;99.90
57390;DHT22;43217;52.694;6.214;2023-12-20T04:36:43;6.60;99.90
57390;DHT22;43217;52.694;6.214;2023-12-20T04:39:08;6.60;99.90
57390;DHT22;43217;52.694;6.214;2023-12-20T04:41:34;6.60;99.90
57390;DHT22;43217;52.694;6.214;2023-12-20T04:43:59;6.60;99.90
57390;DHT22;43217;52.694;6.214;2023-12-20T04:46:26;6.60;99.90
57390;DHT22;43217;52.694;6.214;2023-12-20T04:48:51;6.60;99.90
57390;DHT22;43217;52.694;6.214;2023-12-20T04:51:17;6.70;99.90
57390;DHT22;43217;52.694;6.214;2023-12-20T04:53:43;6.70;99.90
57390;DHT22;43217;52.694;6.214;2023-12-20T04:56:08;6.70;99.90
57390;DHT22;43217;52.694;6.214;2023-12-20T04:58:34;6.70;99.90
57390;DHT22;43217;52.694;6.214;2023-12-20T05:00:59;6.80;99.90
57390;DHT22;43217;52.694;6.214;2023-12-20T05:03:25;6.80;99.90
57390;DHT22;43217;52.694;6.214;2023-12-20T05:05:51;6.80;99.90
57390;DHT22;43217;52.694;6.214;2023-12-20T05:08:16;6.80;99.90
57390;DHT22;43217;52.694;6.214;2023-12-20T05:10:42;6.90;99.90
57390;DHT22;43217;52.694;6.214;2023-12-20T05:13:07;6.80;99.90
57390;DHT22;43217;52.694;6.214;2023-12-20T05:15:33;6.90;99.90
57390;DHT22;43217;52.694;6.214;2023-12-20T05:17:59;6.90;99.90
57390;DHT22;43217;52.694;6.214;2023-12-20T05:20:24;6.90;99.90
57390;DHT22;43217;52.694;6.214;2023-12-20T05:22:50;6.90;99.90
57390;DHT22;43217;52.694;6.214;2023-12-20T05:25:15;7.00;99.90
57390;DHT22;43217;52.694;6.214;2023-12-20T05:27:41;6.90;99.90
57390;DHT22;43217;52.694;6.214;2023-12-20T05:30:07;7.00;99.90
57390;DHT22;43217;52.694;6.214;2023-12-20T05:32:32;7.00;99.90
57390;DHT22;43217;52.694;6.214;2023-12-20T05:34:58;7.00;99.90
57390;DHT22;43217;52.694;6.214;2023-12-20T05:37:24;7.00;99.90
57390;DHT22;43217;52.694;6.214;2023-12-20T05:39:49;7.00;99.90
57390;DHT22;43217;52.694;6.214;2023-12-20T05:42:15;7.00;99.90
57390;DHT22;43217;52.694;6.214;2023-12-20T05:44:40;7.00;99.90
57390;DHT22;43217;52.694;6.214;2023-12-20T05:47:06;7.00;99.90
57390;DHT22;43217;52.694;6.214;2023-12-20T05:49:31;7.10;99.90
57390;DHT22;43217;52.694;6.214;2023-12-20T05:51:57;7.00;99.90
57390;DHT22;43217;52.694;6.214;2023-12-20T05:54:22;7.10;99.90
57390;DHT22;43217;52.694;6.214;2023-12-20T05:56:48;7.10;99.90
57390;DHT22;43217;52.694;6.214;2023-12-20T05:59:14;7.10;99.90
57390;DHT22;43217;52.694;6.214;2023-12-20T06:01:39;7.10;99.90
57390;DHT22;43217;52.694;6.214;2023-12-20T06:04:05;7.10;99.90
57390;DHT22;43217;52.694;6.214;2023-12-20T06:06:31;7.10;99.90
57390;DHT22;43217;52.694;6.214;2023-12-20T06:08:56;7.10;99.90
57390;DHT22;43217;52.694;6.214;2023-12-20T06:11:23;7.10;99.90
57390;DHT22;43217;52.694;6.214;2023-12-20T06:13:48;7.10;99.90
57390;DHT22;43217;52.694;6.214;2023-12-20T06:16:16;7.10;99.90
57390;DHT22;43217;52.694;6.214;2023-12-20T06:18:42;7.10;99.90
57390;DHT22;43217;52.694;6.214;2023-12-20T06:21:08;7.10;99.90
57390;DHT22;43217;52.694;6.214;2023-12-20T06:23:33;7.10;99.90
57390;DHT22;43217;52.694;6.214;2023-12-20T06:25:59;7.20;99.90
57390;DHT22;43217;52.694;6.214;2023-12-20T06:28:24;7.20;99.90
57390;DHT22;43217;52.694;6.214;2023-12-20T06:30:50;7.20;99.90
57390;DHT22;43217;52.694;6.214;2023-12-20T06:33:17;7.20;99.90
57390;DHT22;43217;52.694;6.214;2023-12-20T06:35:44;7.20;99.90
57390;DHT22;43217;52.694;6.214;2023-12-20T06:38:09;7.20;99.90
57390;DHT22;43217;52.694;6.214;2023-12-20T06:40:35;7.20;99.90
57390;DHT22;43217;52.694;6.214;2023-12-20T06:43:00;7.30;99.90
57390;DHT22;43217;52.694;6.214;2023-12-20T06:45:26;7.30;99.90
57390;DHT22;43217;52.694;6.214;2023-12-20T06:47:52;7.30;99.90
57390;DHT22;43217;52.694;6.214;2023-12-20T06:50:17;7.30;99.90
57390;DHT22;43217;52.694;6.214;2023-12-20T06:52:43;7.30;99.90
57390;DHT22;43217;52.694;6.214;2023-12-20T06:55:08;7.30;99.90
57390;DHT22;43217;52.694;6.214;2023-12-20T06:57:34;7.30;99.90
57390;DHT22;43217;52.694;6.214;2023-12-20T07:00:02;7.30;99.90
57390;DHT22;43217;52.694;6.214;2023-12-20T07:02:28;7.20;99.90
57390;DHT22;43217;52.694;6.214;2023-12-20T07:04:55;7.20;99.90
57390;DHT22;43217;52.694;6.214;2023-12-20T07:07:21;7.30;99.90
57390;DHT22;43217;52.694;6.214;2023-12-20T07:09:48;7.30;99.90
57390;DHT22;43217;52.694;6.214;2023-12-20T07:12:14;7.30;99.90
57390;DHT22;43217;52.694;6.214;2023-12-20T07:14:39;7.30;99.90
57390;DHT22;43217;52.694;6.214;2023-12-20T07:17:05;7.30;99.90
57390;DHT22;43217;52.694;6.214;2023-12-20T07:19:33;7.30;99.90
57390;DHT22;43217;52.694;6.214;2023-12-20T07:21:58;7.30;99.90
57390;DHT22;43217;52.694;6.214;2023-12-20T07:24:24;7.30;99.90
57390;DHT22;43217;52.694;6.214;2023-12-20T07:26:49;7.30;99.90
57390;DHT22;43217;52.694;6.214;2023-12-20T07:29:15;7.40;99.90
57390;DHT22;43217;52.694;6.214;2023-12-20T07:31:41;7.40;99.90
57390;DHT22;43217;52.694;6.214;2023-12-20T07:34:06;7.30;99.90
57390;DHT22;43217;52.694;6.214;2023-12-20T07:36:32;7.40;99.90
57390;DHT22;43217;52.694;6.214;2023-12-20T07:38:58;7.40;99.90
57390;DHT22;43217;52.694;6.214;2023-12-20T07:41:23;7.40;99.90
57390;DHT22;43217;52.694;6.214;2023-12-20T07:43:49;7.40;99.90
57390;DHT22;43217;52.694;6.214;2023-12-20T07:46:14;7.40;99.90
57390;DHT22;43217;52.694;6.214;2023-12-20T07:48:40;7.40;99.90
57390;DHT22;43217;52.694;6.214;2023-12-20T07:51:06;7.40;99.90
57390;DHT22;43217;52.694;6.214;2023-12-20T07:53:33;7.40;99.90
57390;DHT22;43217;52.694;6.214;2023-12-20T07:55:59;7.40;99.90
57390;DHT22;43217;52.694;6.214;2023-12-20T07:58:25;7.40;99.90
57390;DHT22;43217;52.694;6.214;2023-12-20T08:00:51;7.40;99.90
57390;DHT22;43217;52.694;6.214;2023-12-20T08:03:16;7.40;99.90
57390;DHT22;43217;52.694;6.214;2023-12-20T08:05:42;7.40;99.90
57390;DHT22;43217;52.694;6.214;2023-12-20T08:08:07;7.40;99.90
57390;DHT22;43217;52.694;6.214;2023-12-20T08:10:33;7.40;99.90
57390;DHT22;43217;52.694;6.214;2023-12-20T08:12:58;7.50;99.90
57390;DHT22;43217;52.694;6.214;2023-12-20T08:15:24;7.40;99.90
57390;DHT22;43217;52.694;6.214;2023-12-20T08:17:50;7.50;99.90
57390;DHT22;43217;52.694;6.214;2023-12-20T08:20:16;7.50;99.90
57390;DHT22;43217;52.694;6.214;2023-12-20T08:22:42;7.50;99.90
57390;DHT22;43217;52.694;6.214;2023-12-20T08:25:08;7.50;99.90
57390;DHT22;43217;52.694;6.214;2023-12-20T08:27:38;7.60;99.90
57390;DHT22;43217;52.694;6.214;2023-12-20T08:30:03;7.60;99.90
57390;DHT22;43217;52.694;6.214;2023-12-20T08:32:29;7.60;99.90
57390;DHT22;43217;52.694;6.214;2023-12-20T08:34:55;7.70;99.90
57390;DHT22;43217;52.694;6.214;2023-12-20T08:37:20;7.70;99.90
57390;DHT22;43217;52.694;6.214;2023-12-20T08:39:46;7.70;99.90
57390;DHT22;43217;52.694;6.214;2023-12-20T08:42:11;7.70;99.90
57390;DHT22;43217;52.694;6.214;2023-12-20T08:44:37;7.70;99.90
57390;DHT22;43217;52.694;6.214;2023-12-20T08:47:03;7.70;99.90
57390;DHT22;43217;52.694;6.214;2023-12-20T08:49:28;7.70;99.90
57390;DHT22;43217;52.694;6.214;2023-12-20T08:51:54;7.70;99.90
57390;DHT22;43217;52.694;6.214;2023-12-20T08:54:20;7.70;99.90
57390;DHT22;43217;52.694;6.214;2023-12-20T08:56:45;7.80;99.90
57390;DHT22;43217;52.694;6.214;2023-12-20T08:59:11;7.80;99.90
57390;DHT22;43217;52.694;6.214;2023-12-20T09:01:37;7.80;99.90
57390;DHT22;43217;52.694;6.214;2023-12-20T09:04:03;7.80;99.90
57390;DHT22;43217;52.694;6.214;2023-12-20T09:06:29;7.80;99.90
57390;DHT22;43217;52.694;6.214;2023-12-20T09:08:54;7.90;99.90
57390;DHT22;43217;52.694;6.214;2023-12-20T09:11:20;7.90;99.90
57390;DHT22;43217;52.694;6.214;2023-12-20T09:13:45;7.90;99.90
57390;DHT22;43217;52.694;6.214;2023-12-20T09:16:11;7.90;99.90
57390;DHT22;43217;52.694;6.214;2023-12-20T09:18:38;7.90;99.90
57390;DHT22;43217;52.694;6.214;2023-12-20T09:21:04;7.90;99.90
57390;DHT22;43217;52.694;6.214;2023-12-20T09:23:29;8.00;99.90
57390;DHT22;43217;52.694;6.214;2023-12-20T09:25:55;8.00;99.90
57390;DHT22;43217;52.694;6.214;2023-12-20T09:28:20;7.90;99.90
57390;DHT22;43217;52.694;6.214;2023-12-20T09:30:46;7.90;99.90
57390;DHT22;43217;52.694;6.214;2023-12-20T09:33:13;8.00;99.90
57390;DHT22;43217;52.694;6.214;2023-12-20T09:35:39;7.90;99.90
57390;DHT22;43217;52.694;6.214;2023-12-20T09:38:05;7.90;99.90
57390;DHT22;43217;52.694;6.214;2023-12-20T09:40:32;7.90;99.90
57390;DHT22;43217;52.694;6.214;2023-12-20T09:43:01;8.00;99.90
57390;DHT22;43217;52.694;6.214;2023-12-20T09:45:30;8.00;99.90
57390;DHT22;43217;52.694;6.214;2023-12-20T09:47:56;8.10;99.90
57390;DHT22;43217;52.694;6.214;2023-12-20T09:50:23;8.20;99.90
57390;DHT22;43217;52.694;6.214;2023-12-20T09:52:53;8.20;99.90
57390;DHT22;43217;52.694;6.214;2023-12-20T09:55:19;8.20;99.90
57390;DHT22;43217;52.694;6.214;2023-12-20T09:57:46;8.30;99.90
57390;DHT22;43217;52.694;6.214;2023-12-20T10:00:13;8.30;99.90
57390;DHT22;43217;52.694;6.214;2023-12-20T10:02:47;8.30;99.90
57390;DHT22;43217;52.694;6.214;2023-12-20T10:05:17;8.40;99.90
57390;DHT22;43217;52.694;6.214;2023-12-20T10:07:46;8.40;99.90
57390;DHT22;43217;52.694;6.214;2023-12-20T10:10:13;8.40;99.90
57390;DHT22;43217;52.694;6.214;2023-12-20T10:12:39;8.30;99.90
57390;DHT22;43217;52.694;6.214;2023-12-20T10:15:05;8.10;99.90
57390;DHT22;43217;52.694;6.214;2023-12-20T10:17:31;8.00;99.90
57390;DHT22;43217;52.694;6.214;2023-12-20T10:19:57;7.80;99.90
57390;DHT22;43217;52.694;6.214;2023-12-20T10:22:23;7.70;99.90
57390;DHT22;43217;52.694;6.214;2023-12-20T10:24:49;7.50;99.90
57390;DHT22;43217;52.694;6.214;2023-12-20T10:27:18;7.40;99.90
57390;DHT22;43217;52.694;6.214;2023-12-20T10:29:44;7.40;99.90
57390;DHT22;43217;52.694;6.214;2023-12-20T10:32:30;7.30;99.90
57390;DHT22;43217;52.694;6.214;2023-12-20T10:34:57;7.30;99.90
57390;DHT22;43217;52.694;6.214;2023-12-20T10:37:22;7.20;99.90
57390;DHT22;43217;52.694;6.214;2023-12-20T10:39:53;7.20;99.90
57390;DHT22;43217;52.694;6.214;2023-12-20T10:42:30;7.20;99.90
57390;DHT22;43217;52.694;6.214;2023-12-20T10:44:58;7.20;99.90
57390;DHT22;43217;52.694;6.214;2023-12-20T10:47:24;7.20;99.90
57390;DHT22;43217;52.694;6.214;2023-12-20T10:49:52;7.20;99.90
57390;DHT22;43217;52.694;6.214;2023-12-20T10:52:18;7.20;99.90
57390;DHT22;43217;52.694;6.214;2023-12-20T10:54:44;7.20;99.90
57390;DHT22;43217;52.694;6.214;2023-12-20T10:57:10;7.20;99.90
57390;DHT22;43217;52.694;6.214;2023-12-20T10:59:37;7.20;99.90
57390;DHT22;43217;52.694;6.214;2023-12-20T11:02:04;7.20;99.90
57390;DHT22;43217;52.694;6.214;2023-12-20T11:04:43;7.20;99.90
57390;DHT22;43217;52.694;6.214;2023-12-20T11:07:18;7.20;99.90
57390;DHT22;43217;52.694;6.214;2023-12-20T11:09:51;7.10;99.90
57390;DHT22;43217;52.694;6.214;2023-12-20T11:12:35;7.10;99.90
57390;DHT22;43217;52.694;6.214;2023-12-20T11:15:02;7.10;99.90
57390;DHT22;43217;52.694;6.214;2023-12-20T11:17:30;7.00;99.90
57390;DHT22;43217;52.694;6.214;2023-12-20T11:22:24;7.00;99.90
57390;DHT22;43217;52.694;6.214;2023-12-20T11:24:51;7.00;99.90
57390;DHT22;43217;52.694;6.214;2023-12-20T11:27:18;7.10;99.90
57390;DHT22;43217;52.694;6.214;2023-12-20T11:29:51;7.00;99.90
57390;DHT22;43217;52.694;6.214;2023-12-20T11:35:00;7.10;99.90
57390;DHT22;43217;52.694;6.214;2023-12-20T11:37:30;7.20;99.90
57390;DHT22;43217;52.694;6.214;2023-12-20T11:40:06;7.20;99.90
57390;DHT22;43217;52.694;6.214;2023-12-20T11:42:45;7.20;99.90
57390;DHT22;43217;52.694;6.214;2023-12-20T11:45:19;7.20;99.90
57390;DHT22;43217;52.694;6.214;2023-12-20T11:47:48;7.20;99.90
57390;DHT22;43217;52.694;6.214;2023-12-20T11:50:21;7.10;99.90
57390;DHT22;43217;52.694;6.214;2023-12-20T11:52:47;7.10;99.90
57390;DHT22;43217;52.694;6.214;2023-12-20T11:55:13;7.20;99.90
57390;DHT22;43217;52.694;6.214;2023-12-20T11:57:39;7.20;99.90
57390;DHT22;43217;52.694;6.214;2023-12-20T12:00:06;7.20;99.90
57390;DHT22;43217;52.694;6.214;2023-12-20T12:02:32;7.10;99.90
57390;DHT22;43217;52.694;6.214;2023-12-20T12:04:59;7.20;99.90
57390;DHT22;43217;52.694;6.214;2023-12-20T12:07:25;7.20;99.90
57390;DHT22;43217;52.694;6.214;2023-12-20T12:09:51;7.20;99.90
57390;DHT22;43217;52.694;6.214;2023-12-20T12:12:17;7.10;99.90
57390;DHT22;43217;52.694;6.214;2023-12-20T12:14:45;7.10;99.90
57390;DHT22;43217;52.694;6.214;2023-12-20T12:17:14;7.20;99.90
57390;DHT22;43217;52.694;6.214;2023-12-20T12:19:40;7.10;99.90
57390;DHT22;43217;52.694;6.214;2023-12-20T12:22:14;7.20;99.90
57390;DHT22;43217;52.694;6.214;2023-12-20T12:24:41;7.10;99.90
57390;DHT22;43217;52.694;6.214;2023-12-20T12:27:07;7.20;99.90
57390;DHT22;43217;52.694;6.214;2023-12-20T12:29:34;7.20;99.90
57390;DHT22;43217;52.694;6.214;2023-12-20T12:32:00;7.20;99.90
57390;DHT22;43217;52.694;6.214;2023-12-20T12:34:29;7.20;99.90
57390;DHT22;43217;52.694;6.214;2023-12-20T12:36:56;7.20;99.90
57390;DHT22;43217;52.694;6.214;2023-12-20T12:39:23;7.20;99.90
57390;DHT22;43217;52.694;6.214;2023-12-20T12:41:50;7.20;99.90
57390;DHT22;43217;52.694;6.214;2023-12-20T12:44:16;7.20;99.90
57390;DHT22;43217;52.694;6.214;2023-12-20T12:46:43;7.20;99.90
57390;DHT22;43217;52.694;6.214;2023-12-20T12:49:09;7.20;99.90
57390;DHT22;43217;52.694;6.214;2023-12-20T12:51:35;7.30;99.90
57390;DHT22;43217;52.694;6.214;2023-12-20T12:54:00;7.30;99.90
57390;DHT22;43217;52.694;6.214;2023-12-20T12:56:26;7.30;99.90
57390;DHT22;43217;52.694;6.214;2023-12-20T12:58:52;7.30;99.90
57390;DHT22;43217;52.694;6.214;2023-12-20T13:01:17;7.40;99.90
57390;DHT22;43217;52.694;6.214;2023-12-20T13:03:43;7.40;99.90
57390;DHT22;43217;52.694;6.214;2023-12-20T13:06:08;7.40;99.90
57390;DHT22;43217;52.694;6.214;2023-12-20T13:08:34;7.40;99.90
57390;DHT22;43217;52.694;6.214;2023-12-20T13:11:00;7.40;99.90
57390;DHT22;43217;52.694;6.214;2023-12-20T13:13:29;7.40;99.90
57390;DHT22;43217;52.694;6.214;2023-12-20T13:15:55;7.40;99.90
57390;DHT22;43217;52.694;6.214;2023-12-20T13:18:22;7.40;99.90
57390;DHT22;43217;52.694;6.214;2023-12-20T13:20:48;7.40;99.90
57390;DHT22;43217;52.694;6.214;2023-12-20T13:23:14;7.40;99.90
57390;DHT22;43217;52.694;6.214;2023-12-20T13:25:40;7.40;99.90
57390;DHT22;43217;52.694;6.214;2023-12-20T13:28:06;7.30;99.90
57390;DHT22;43217;52.694;6.214;2023-12-20T13:30:31;7.30;99.90
57390;DHT22;43217;52.694;6.214;2023-12-20T13:32:57;7.30;99.90
57390;DHT22;43217;52.694;6.214;2023-12-20T13:35:22;7.30;99.90
57390;DHT22;43217;52.694;6.214;2023-12-20T13:37:48;7.30;99.90
57390;DHT22;43217;52.694;6.214;2023-12-20T13:40:14;7.30;99.90
57390;DHT22;43217;52.694;6.214;2023-12-20T13:42:39;7.30;99.90
57390;DHT22;43217;52.694;6.214;2023-12-20T13:45:06;7.30;99.90
57390;DHT22;43217;52.694;6.214;2023-12-20T13:47:32;7.30;99.90
57390;DHT22;43217;52.694;6.214;2023-12-20T13:49:58;7.30;99.90
57390;DHT22;43217;52.694;6.214;2023-12-20T13:52:24;7.30;99.90
57390;DHT22;43217;52.694;6.214;2023-12-20T13:54:49;7.40;99.90
57390;DHT22;43217;52.694;6.214;2023-12-20T13:57:15;7.40;99.90
57390;DHT22;43217;52.694;6.214;2023-12-20T13:59:40;7.40;99.90
57390;DHT22;43217;52.694;6.214;2023-12-20T14:02:06;7.40;99.90
57390;DHT22;43217;52.694;6.214;2023-12-20T14:04:32;7.50;99.90
57390;DHT22;43217;52.694;6.214;2023-12-20T14:06:57;7.50;99.90
57390;DHT22;43217;52.694;6.214;2023-12-20T14:09:23;7.60;99.90
57390;DHT22;43217;52.694;6.214;2023-12-20T14:11:49;7.60;99.90
57390;DHT22;43217;52.694;6.214;2023-12-20T14:14:14;7.70;99.90
57390;DHT22;43217;52.694;6.214;2023-12-20T14:16:40;7.80;99.90
57390;DHT22;43217;52.694;6.214;2023-12-20T14:19:06;7.80;99.90
57390;DHT22;43217;52.694;6.214;2023-12-20T14:21:33;7.90;99.90
57390;DHT22;43217;52.694;6.214;2023-12-20T14:23:59;7.90;99.90
57390;DHT22;43217;52.694;6.214;2023-12-20T14:26:25;7.90;99.90
57390;DHT22;43217;52.694;6.214;2023-12-20T14:28:51;7.90;99.90
57390;DHT22;43217;52.694;6.214;2023-12-20T14:31:16;8.00;99.90
57390;DHT22;43217;52.694;6.214;2023-12-20T14:33:42;7.90;99.90
57390;DHT22;43217;52.694;6.214;2023-12-20T14:36:08;8.00;99.90
57390;DHT22;43217;52.694;6.214;2023-12-20T14:38:34;8.00;99.90
57390;DHT22;43217;52.694;6.214;2023-12-20T14:41:00;8.00;99.90
57390;DHT22;43217;52.694;6.214;2023-12-20T14:43:28;8.00;99.90
57390;DHT22;43217;52.694;6.214;2023-12-20T14:45:55;8.00;99.90
57390;DHT22;43217;52.694;6.214;2023-12-20T14:48:20;8.00;99.90
57390;DHT22;43217;52.694;6.214;2023-12-20T14:50:46;8.00;99.90
57390;DHT22;43217;52.694;6.214;2023-12-20T14:53:14;7.90;99.90
57390;DHT22;43217;52.694;6.214;2023-12-20T14:55:42;7.90;99.90
57390;DHT22;43217;52.694;6.214;2023-12-20T14:58:07;7.90;99.90
57390;DHT22;43217;52.694;6.214;2023-12-20T15:00:33;7.90;99.90
57390;DHT22;43217;52.694;6.214;2023-12-20T15:02:59;7.90;99.90
57390;DHT22;43217;52.694;6.214;2023-12-20T15:05:25;7.90;99.90
57390;DHT22;43217;52.694;6.214;2023-12-20T15:07:52;7.90;99.90
57390;DHT22;43217;52.694;6.214;2023-12-20T15:10:18;7.90;99.90
57390;DHT22;43217;52.694;6.214;2023-12-20T15:12:44;7.90;99.90
57390;DHT22;43217;52.694;6.214;2023-12-20T15:15:10;7.90;99.90
57390;DHT22;43217;52.694;6.214;2023-12-20T15:17:36;7.90;99.90
57390;DHT22;43217;52.694;6.214;2023-12-20T15:20:03;7.90;99.90
57390;DHT22;43217;52.694;6.214;2023-12-20T15:22:30;7.90;99.90
57390;DHT22;43217;52.694;6.214;2023-12-20T15:24:55;7.90;99.90
57390;DHT22;43217;52.694;6.214;2023-12-20T15:27:21;7.90;99.90
57390;DHT22;43217;52.694;6.214;2023-12-20T15:29:46;7.90;99.90
57390;DHT22;43217;52.694;6.214;2023-12-20T15:32:12;7.90;99.90
57390;DHT22;43217;52.694;6.214;2023-12-20T15:34:38;7.90;99.90
57390;DHT22;43217;52.694;6.214;2023-12-20T15:37:03;7.90;99.90
57390;DHT22;43217;52.694;6.214;2023-12-20T15:39:29;7.90;99.90
57390;DHT22;43217;52.694;6.214;2023-12-20T15:41:55;7.90;99.90
57390;DHT22;43217;52.694;6.214;2023-12-20T15:44:20;7.80;99.90